createdAt,value
2018-04-11T00:00:59.536Z,13.55
2018-04-11T00:02:00.578Z,13.69
2018-04-11T00:02:59.868Z,13.67
2018-04-11T00:04:00.028Z,13.69
2018-04-11T00:05:00.196Z,13.45
2018-04-11T00:06:00.372Z,13.46
2018-04-11T00:07:00.547Z,13.59
2018-04-11T00:08:00.705Z,13.67
2018-04-11T00:09:00.899Z,13.73
2018-04-11T00:10:01.114Z,13.82
2018-04-11T00:11:01.296Z,13.82
2018-04-11T00:12:01.463Z,13.55
2018-04-11T00:13:01.615Z,13.55
2018-04-11T00:14:01.798Z,13.28
2018-04-11T00:15:01.971Z,13.22
2018-04-11T00:16:02.194Z,13.30
2018-04-11T00:17:02.382Z,13.38
2018-04-11T00:18:02.593Z,13.32
2018-04-11T00:19:02.776Z,13.42
2018-04-11T00:20:02.944Z,13.52
2018-04-11T00:21:03.142Z,13.63
2018-04-11T00:22:04.068Z,13.67
2018-04-11T00:23:03.514Z,13.73
2018-04-11T00:24:04.583Z,13.82
2018-04-11T00:25:03.851Z,13.84
2018-04-11T00:26:03.997Z,13.91
2018-04-11T00:27:04.186Z,13.96
2018-04-11T00:28:04.391Z,14.04
2018-04-11T00:29:04.578Z,14.03
2018-04-11T00:30:04.740Z,13.99
2018-04-11T00:31:04.917Z,13.96
2018-04-11T00:32:05.116Z,14.09
2018-04-11T00:33:05.309Z,14.09
2018-04-11T00:34:05.464Z,14.14
2018-04-11T00:35:05.627Z,14.22
2018-04-11T00:36:05.783Z,14.29
2018-04-11T00:37:05.980Z,14.35
2018-04-11T00:38:06.155Z,14.35
2018-04-11T00:39:06.350Z,14.33
2018-04-11T00:40:06.530Z,14.18
2018-04-11T00:41:06.704Z,14.25
2018-04-11T00:42:06.873Z,14.06
2018-04-11T00:43:07.587Z,14.09
2018-04-11T00:44:07.223Z,14.15
2018-04-11T00:45:07.439Z,14.20
2018-04-11T00:46:07.605Z,14.18
2018-04-11T00:47:07.770Z,14.22
2018-04-11T00:48:07.934Z,14.21
2018-04-11T00:49:08.114Z,14.18
2018-04-11T00:50:08.291Z,14.29
2018-04-11T00:51:08.473Z,14.18
2018-04-11T00:52:08.642Z,14.29
2018-04-11T00:53:08.839Z,14.28
2018-04-11T00:54:09.012Z,14.32
2018-04-11T00:55:09.190Z,14.20
2018-04-11T00:56:09.367Z,14.21
2018-04-11T00:57:09.524Z,14.07
2018-04-11T00:58:09.696Z,14.03
2018-04-11T00:59:09.878Z,14.02
2018-04-11T01:00:10.078Z,13.85
2018-04-11T01:01:10.223Z,13.82
2018-04-11T01:02:10.405Z,13.84
2018-04-11T01:03:10.577Z,13.81
2018-04-11T01:04:10.768Z,13.73
2018-04-11T01:05:10.929Z,13.78
2018-04-11T01:06:11.083Z,13.75
2018-04-11T01:07:11.243Z,13.77
2018-04-11T01:08:11.432Z,13.70
2018-04-11T01:09:11.615Z,13.57
2018-04-11T01:10:11.778Z,13.44
2018-04-11T01:11:11.964Z,13.54
2018-04-11T01:12:12.144Z,13.51
2018-04-11T01:13:12.347Z,13.59
2018-04-11T01:14:12.519Z,13.69
2018-04-11T01:15:12.701Z,13.73
2018-04-11T01:16:12.862Z,13.77
2018-04-11T01:17:13.039Z,13.79
2018-04-11T01:18:13.209Z,13.88
2018-04-11T01:19:13.596Z,14.06
2018-04-11T01:20:13.511Z,14.10
2018-04-11T01:21:13.709Z,14.18
2018-04-11T01:22:13.916Z,14.28
2018-04-11T01:23:14.071Z,14.25
2018-04-11T01:24:14.253Z,14.09
2018-04-11T01:25:14.398Z,14.07
2018-04-11T01:26:14.569Z,13.99
2018-04-11T01:27:14.791Z,14.00
2018-04-11T01:28:14.972Z,13.91
2018-04-11T01:29:15.132Z,13.84
2018-04-11T01:30:15.293Z,13.78
2018-04-11T01:31:16.114Z,13.73
2018-04-11T01:32:15.632Z,13.73
2018-04-11T01:33:16.575Z,13.81
2018-04-11T01:34:16.586Z,13.77
2018-04-11T01:35:17.078Z,13.84
2018-04-11T01:36:16.337Z,13.97
2018-04-11T01:37:16.500Z,13.92
2018-04-11T01:38:16.640Z,13.97
2018-04-11T01:39:16.814Z,14.12
2018-04-11T01:40:16.983Z,14.07
2018-04-11T01:41:18.118Z,14.07
2018-04-11T01:42:18.173Z,14.03
2018-04-11T01:43:18.613Z,13.92
2018-04-11T01:44:18.607Z,13.84
2018-04-11T01:45:18.595Z,13.87
2018-04-11T01:46:19.085Z,13.88
2018-04-11T01:47:19.094Z,13.92
2018-04-11T01:48:19.097Z,13.99
2018-04-11T01:49:19.095Z,14.00
2018-04-11T01:50:18.756Z,14.12
2018-04-11T01:51:19.593Z,14.14
2018-04-11T01:52:20.094Z,14.17
2018-04-11T01:53:19.267Z,14.06
2018-04-11T01:54:19.455Z,14.12
2018-04-11T01:55:19.605Z,14.14
2018-04-11T01:56:20.577Z,14.17
2018-04-11T01:57:20.583Z,14.15
2018-04-11T01:58:20.102Z,14.12
2018-04-11T01:59:20.275Z,14.12
2018-04-11T02:00:20.445Z,14.06
2018-04-11T02:01:21.590Z,14.12
2018-04-11T02:02:20.788Z,14.03
2018-04-11T02:03:20.942Z,14.03
2018-04-11T02:04:21.129Z,14.17
2018-04-11T02:05:21.287Z,14.15
2018-04-11T02:06:21.479Z,14.18
2018-04-11T02:07:22.595Z,14.17
2018-04-11T02:08:21.836Z,14.17
2018-04-11T02:09:22.008Z,14.15
2018-04-11T02:10:22.180Z,14.12
2018-04-11T02:11:22.343Z,14.21
2018-04-11T02:12:22.524Z,14.12
2018-04-11T02:13:22.696Z,14.18
2018-04-11T02:14:22.842Z,14.18
2018-04-11T02:18:30.768Z,14.28
2018-04-11T02:19:30.411Z,14.14
2018-04-11T02:20:30.576Z,14.15
2018-04-11T02:21:31.247Z,14.12
2018-04-11T02:22:30.914Z,14.12
2018-04-11T02:23:31.081Z,14.18
2018-04-11T02:24:31.247Z,14.18
2018-04-11T02:25:31.416Z,14.32
2018-04-11T02:26:31.584Z,14.35
2018-04-11T02:27:31.743Z,14.28
2018-04-11T02:28:32.750Z,14.36
2018-04-11T02:29:32.048Z,14.33
2018-04-11T02:30:32.220Z,14.33
2018-04-11T02:31:32.384Z,14.35
2018-04-11T02:32:32.552Z,14.36
2018-04-11T02:33:33.252Z,14.32
2018-04-11T02:34:32.918Z,14.33
2018-04-11T02:35:33.098Z,14.35
2018-04-11T02:36:39.751Z,14.35
2018-04-11T02:37:33.413Z,14.37
2018-04-11T02:38:33.583Z,14.37
2018-04-11T02:39:33.751Z,14.45
2018-04-11T02:40:33.915Z,14.43
2018-04-11T02:41:34.082Z,14.42
2018-04-11T02:42:34.259Z,14.46
2018-04-11T02:43:34.424Z,14.50
2018-04-11T02:44:34.610Z,14.40
2018-04-11T02:45:34.762Z,14.32
2018-04-11T02:46:34.925Z,14.32
2018-04-11T02:47:35.096Z,14.35
2018-04-11T02:48:35.266Z,14.35
2018-04-11T02:49:35.435Z,14.29
2018-04-11T02:50:35.593Z,14.29
2018-04-11T02:51:35.763Z,14.28
2018-04-11T02:52:35.929Z,14.21
2018-04-11T02:53:36.098Z,14.21
2018-04-11T02:54:36.281Z,14.14
2018-04-11T02:55:36.442Z,14.12
2018-04-11T02:56:36.613Z,14.12
2018-04-11T02:57:36.780Z,14.04
2018-04-11T02:58:36.952Z,13.99
2018-04-11T02:59:37.116Z,13.85
2018-04-11T03:00:37.285Z,13.95
2018-04-11T03:01:37.456Z,13.88
2018-04-11T03:02:37.622Z,13.97
2018-04-11T03:03:37.791Z,13.92
2018-04-11T03:04:37.963Z,13.87
2018-04-11T03:05:38.128Z,13.87
2018-04-11T03:06:38.297Z,13.84
2018-04-11T03:07:38.467Z,13.87
2018-04-11T03:08:38.640Z,13.81
2018-04-11T03:09:38.801Z,13.71
2018-04-11T03:10:38.976Z,13.66
2018-04-11T03:11:39.142Z,13.71
2018-04-11T03:12:39.314Z,13.77
2018-04-11T03:13:39.488Z,13.71
2018-04-11T03:14:39.643Z,13.77
2018-04-11T03:15:39.813Z,13.82
2018-04-11T03:16:39.982Z,13.78
2018-04-11T03:17:40.152Z,13.77
2018-04-11T03:18:40.336Z,13.75
2018-04-11T03:19:40.497Z,13.75
2018-04-11T03:20:40.675Z,13.67
2018-04-11T03:21:40.844Z,13.70
2018-04-11T03:22:41.011Z,13.69
2018-04-11T03:23:41.178Z,13.66
2018-04-11T03:24:41.349Z,13.64
2018-04-11T03:25:41.527Z,13.79
2018-04-11T03:26:41.693Z,13.70
2018-04-11T03:27:41.868Z,13.79
2018-04-11T03:28:42.034Z,13.67
2018-04-11T03:29:42.194Z,13.69
2018-04-11T03:30:42.361Z,13.73
2018-04-11T03:31:42.542Z,13.71
2018-04-11T03:32:42.728Z,13.79
2018-04-11T03:33:42.893Z,13.73
2018-04-11T03:34:43.078Z,13.70
2018-04-11T03:35:43.239Z,13.66
2018-04-11T03:36:43.413Z,13.69
2018-04-11T03:37:43.586Z,13.82
2018-04-11T03:38:43.748Z,13.69
2018-04-11T03:39:43.916Z,13.73
2018-04-11T03:40:44.082Z,13.79
2018-04-11T03:41:44.252Z,13.78
2018-04-11T03:42:44.420Z,13.73
2018-04-11T03:43:44.589Z,13.75
2018-04-11T03:44:44.754Z,13.84
2018-04-11T03:45:44.922Z,13.91
2018-04-11T03:46:45.092Z,13.92
2018-04-11T03:47:45.260Z,13.89
2018-04-11T03:48:45.433Z,13.85
2018-04-11T03:49:45.607Z,13.87
2018-04-11T03:50:45.767Z,13.89
2018-04-11T03:51:45.934Z,13.87
2018-04-11T03:52:46.104Z,13.88
2018-04-11T03:53:46.271Z,13.91
2018-04-11T03:54:46.477Z,13.89
2018-04-11T03:55:46.611Z,13.91
2018-04-11T03:56:46.778Z,13.84
2018-04-11T03:57:46.948Z,13.87
2018-04-11T03:58:47.123Z,13.85
2018-04-11T03:59:47.291Z,13.96
2018-04-11T04:00:47.467Z,13.91
2018-04-11T04:01:47.629Z,13.95
2018-04-11T04:02:47.795Z,13.96
2018-04-11T04:03:47.967Z,13.99
2018-04-11T04:04:48.134Z,14.03
2018-04-11T04:05:48.310Z,14.03
2018-04-11T04:06:48.473Z,14.04
2018-04-11T04:07:48.661Z,13.96
2018-04-11T04:08:48.806Z,14.02
2018-04-11T04:09:48.977Z,13.95
2018-04-11T04:10:49.142Z,13.84
2018-04-11T04:11:49.314Z,13.70
2018-04-11T04:12:49.476Z,13.79
2018-04-11T04:13:49.691Z,13.78
2018-04-11T04:14:49.823Z,13.75
2018-04-11T04:15:49.988Z,13.84
2018-04-11T04:16:50.159Z,13.88
2018-04-11T04:17:50.325Z,13.87
2018-04-11T04:18:50.497Z,13.87
2018-04-11T04:19:50.735Z,13.95
2018-04-11T04:20:50.845Z,13.87
2018-04-11T04:21:51.009Z,13.97
2018-04-11T04:22:51.182Z,13.82
2018-04-11T04:23:51.353Z,13.84
2018-04-11T04:24:51.522Z,13.88
2018-04-11T04:25:51.691Z,13.87
2018-04-11T04:26:51.862Z,13.79
2018-04-11T04:27:52.035Z,13.73
2018-04-11T04:28:52.210Z,13.78
2018-04-11T04:29:52.377Z,13.75
2018-04-11T04:30:52.537Z,13.82
2018-04-11T04:31:52.713Z,13.81
2018-04-11T04:32:52.875Z,13.78
2018-04-11T04:33:53.045Z,13.75
2018-04-11T04:34:53.216Z,13.82
2018-04-11T04:35:53.386Z,13.70
2018-04-11T04:36:53.556Z,13.78
2018-04-11T04:37:53.743Z,13.64
2018-04-11T04:38:53.894Z,13.60
2018-04-11T04:39:54.074Z,13.63
2018-04-11T04:40:54.244Z,13.57
2018-04-11T04:41:54.417Z,13.66
2018-04-11T04:42:54.584Z,13.59
2018-04-11T04:43:54.770Z,13.59
2018-04-11T04:44:54.945Z,13.57
2018-04-11T04:45:55.114Z,13.67
2018-04-11T04:46:55.280Z,13.64
2018-04-11T04:47:55.451Z,13.79
2018-04-11T04:48:55.615Z,13.78
2018-04-11T04:49:55.788Z,13.84
2018-04-11T04:50:55.951Z,13.87
2018-04-11T04:51:56.128Z,13.75
2018-04-11T04:52:56.562Z,13.71
2018-04-11T04:53:56.876Z,13.79
2018-04-11T04:54:57.047Z,13.79
2018-04-11T04:55:57.241Z,13.67
2018-04-11T04:56:57.393Z,13.71
2018-04-11T04:57:57.516Z,13.73
2018-04-11T04:58:57.686Z,13.82
2018-04-11T04:59:57.894Z,13.87
2018-04-11T05:00:58.064Z,13.87
2018-04-11T05:01:57.842Z,13.97
2018-04-11T05:02:58.012Z,14.03
2018-04-11T05:03:58.184Z,13.99
2018-04-11T05:04:58.354Z,13.92
2018-04-11T05:05:58.524Z,14.00
2018-04-11T05:06:58.690Z,13.92
2018-04-11T05:07:58.856Z,13.96
2018-04-11T05:08:59.026Z,13.85
2018-04-11T05:09:59.191Z,13.92
2018-04-11T05:10:59.365Z,13.84
2018-04-11T05:11:59.536Z,14.00
2018-04-11T05:12:59.714Z,13.87
2018-04-11T05:13:59.884Z,13.89
2018-04-11T05:15:00.052Z,13.95
2018-04-11T05:16:00.234Z,13.97
2018-04-11T05:17:00.400Z,13.87
2018-04-11T05:18:00.572Z,14.02
2018-04-11T05:19:00.751Z,14.06
2018-04-11T05:20:00.909Z,13.99
2018-04-11T05:21:01.073Z,13.99
2018-04-11T05:22:01.246Z,13.78
2018-04-11T05:23:01.415Z,13.85
2018-04-11T05:24:01.581Z,13.88
2018-04-11T05:25:01.754Z,13.89
2018-04-11T05:26:01.917Z,13.84
2018-04-11T05:27:02.083Z,13.89
2018-04-11T05:28:02.246Z,13.89
2018-04-11T05:29:02.430Z,13.88
2018-04-11T05:30:02.593Z,13.87
2018-04-11T05:31:02.763Z,13.91
2018-04-11T05:32:02.934Z,13.92
2018-04-11T05:33:03.095Z,14.00
2018-04-11T05:34:03.265Z,14.04
2018-04-11T05:35:03.431Z,14.02
2018-04-11T05:36:03.602Z,14.06
2018-04-11T05:37:03.771Z,13.99
2018-04-11T05:38:03.940Z,13.96
2018-04-11T05:39:04.104Z,13.97
2018-04-11T05:40:04.304Z,13.79
2018-04-11T05:41:04.448Z,13.75
2018-04-11T05:42:04.617Z,13.79
2018-04-11T05:43:04.792Z,13.77
2018-04-11T05:44:04.955Z,13.73
2018-04-11T05:45:05.121Z,13.62
2018-04-11T05:46:05.293Z,13.75
2018-04-11T05:47:05.463Z,13.67
2018-04-11T05:48:05.628Z,13.73
2018-04-11T05:49:05.803Z,13.75
2018-04-11T05:50:05.979Z,13.75
2018-04-11T05:51:06.146Z,13.75
2018-04-11T05:52:06.319Z,13.73
2018-04-11T05:53:06.491Z,13.77
2018-04-11T05:54:06.655Z,13.73
2018-04-11T05:55:06.825Z,13.75
2018-04-11T05:56:06.995Z,13.71
2018-04-11T05:57:07.157Z,13.78
2018-04-11T05:58:07.332Z,13.77
2018-04-11T05:59:07.508Z,13.84
2018-04-11T06:00:07.716Z,13.84
2018-04-11T06:01:07.840Z,13.82
2018-04-11T06:02:08.010Z,13.84
2018-04-11T06:03:08.177Z,13.78
2018-04-11T06:04:08.350Z,13.89
2018-04-11T06:05:08.520Z,13.77
2018-04-11T06:06:08.684Z,13.75
2018-04-11T06:07:08.860Z,13.79
2018-04-11T06:08:09.028Z,13.71
2018-04-11T06:09:09.198Z,13.75
2018-04-11T06:10:09.363Z,13.77
2018-04-11T06:11:09.531Z,13.75
2018-04-11T06:12:09.701Z,13.71
2018-04-11T06:13:09.874Z,13.75
2018-04-11T06:14:10.051Z,13.73
2018-04-11T06:15:10.230Z,13.64
2018-04-11T06:16:10.400Z,13.79
2018-04-11T06:17:10.569Z,13.73
2018-04-11T06:18:10.743Z,13.75
2018-04-11T06:19:10.910Z,13.79
2018-04-11T06:20:11.080Z,13.75
2018-04-11T06:21:11.247Z,13.77
2018-04-11T06:22:11.428Z,13.73
2018-04-11T06:23:11.597Z,13.67
2018-04-11T06:24:11.771Z,13.78
2018-04-11T06:25:11.940Z,13.62
2018-04-11T06:26:12.115Z,13.71
2018-04-11T06:27:12.281Z,13.60
2018-04-11T06:28:12.499Z,13.63
2018-04-11T06:29:12.670Z,13.67
2018-04-11T06:30:12.870Z,13.67
2018-04-11T06:31:13.012Z,13.63
2018-04-11T06:32:13.182Z,13.60
2018-04-11T06:33:13.411Z,13.59
2018-04-11T06:34:13.574Z,13.64
2018-04-11T06:35:13.744Z,13.70
2018-04-11T06:36:13.915Z,13.67
2018-04-11T06:37:14.068Z,13.73
2018-04-11T06:38:14.232Z,13.75
2018-04-11T06:39:14.391Z,13.71
2018-04-11T06:40:14.558Z,13.78
2018-04-11T06:41:14.725Z,13.71
2018-04-11T06:42:14.922Z,13.78
2018-04-11T06:43:15.089Z,13.87
2018-04-11T06:44:15.261Z,13.71
2018-04-11T06:45:15.432Z,13.70
2018-04-11T06:46:15.638Z,13.84
2018-04-11T06:47:15.804Z,13.85
2018-04-11T06:48:15.945Z,13.92
2018-04-11T06:49:16.117Z,13.96
2018-04-11T06:50:16.281Z,13.92
2018-04-11T06:51:16.447Z,13.99
2018-04-11T06:52:16.621Z,13.96
2018-04-11T06:53:16.787Z,14.00
2018-04-11T06:54:16.959Z,14.00
2018-04-11T06:55:17.125Z,14.06
2018-04-11T06:56:17.280Z,14.06
2018-04-11T06:57:17.450Z,14.00
2018-04-11T06:58:17.670Z,14.02
2018-04-11T06:59:17.793Z,13.89
2018-04-11T07:00:17.956Z,13.95
2018-04-11T07:01:18.133Z,14.00
2018-04-11T07:02:18.293Z,14.00
2018-04-11T07:03:18.465Z,14.15
2018-04-11T07:04:18.627Z,14.10
2018-04-11T07:05:18.801Z,14.06
2018-04-11T07:06:18.961Z,14.15
2018-04-11T07:07:19.156Z,14.15
2018-04-11T07:08:19.341Z,14.14
2018-04-11T07:09:19.502Z,14.14
2018-04-11T07:10:19.687Z,14.21
2018-04-11T07:11:19.863Z,14.22
2018-04-11T07:12:20.097Z,14.17
2018-04-11T07:13:20.162Z,14.20
2018-04-11T07:19:01.171Z,14.36
2018-04-11T07:20:00.213Z,14.32
2018-04-11T07:21:00.376Z,14.24
2018-04-11T07:22:00.544Z,14.18
2018-04-11T07:23:00.714Z,14.24
2018-04-11T07:24:00.878Z,14.28
2018-04-11T07:25:01.050Z,14.17
2018-04-11T07:26:01.266Z,14.18
2018-04-11T07:27:01.431Z,14.24
2018-04-11T07:28:01.558Z,14.33
2018-04-11T07:29:01.743Z,14.33
2018-04-11T07:30:01.924Z,14.39
2018-04-11T07:31:02.091Z,14.29
2018-04-11T07:32:02.255Z,14.50
2018-04-11T07:33:02.426Z,14.54
2018-04-11T07:34:02.594Z,14.45
2018-04-11T07:35:02.762Z,14.54
2018-04-11T07:36:02.929Z,14.51
2018-04-11T07:37:03.104Z,14.50
2018-04-11T07:38:03.277Z,14.54
2018-04-11T07:39:03.444Z,14.55
2018-04-11T07:40:03.652Z,14.57
2018-04-11T07:41:03.793Z,14.70
2018-04-11T07:42:03.960Z,14.68
2018-04-11T07:43:04.128Z,14.65
2018-04-11T07:44:04.297Z,14.62
2018-04-11T07:45:04.462Z,14.70
2018-04-11T07:46:04.633Z,14.69
2018-04-11T07:47:04.799Z,14.80
2018-04-11T07:48:04.958Z,14.99
2018-04-11T07:49:05.131Z,14.86
2018-04-11T07:50:05.294Z,14.84
2018-04-11T07:51:05.463Z,14.84
2018-04-11T07:52:05.632Z,14.83
2018-04-11T07:53:05.807Z,14.83
2018-04-11T07:54:05.965Z,14.65
2018-04-11T07:55:06.133Z,14.61
2018-04-11T07:56:06.313Z,14.58
2018-04-11T07:57:06.475Z,14.37
2018-04-11T07:58:06.643Z,14.33
2018-04-11T07:59:06.839Z,14.24
2018-04-11T08:00:07.010Z,14.02
2018-04-11T08:01:07.180Z,13.81
2018-04-11T08:02:07.348Z,13.55
2018-04-11T08:03:07.571Z,13.54
2018-04-11T08:04:08.690Z,13.70
2018-04-11T08:05:07.861Z,13.32
2018-04-11T08:06:08.030Z,13.20
2018-04-11T08:07:08.200Z,13.15
2018-04-11T08:08:08.367Z,13.01
2018-04-11T08:09:08.532Z,12.78
2018-04-11T08:10:08.724Z,12.68
2018-04-11T08:11:09.691Z,12.68
2018-04-11T08:12:08.985Z,12.59
2018-04-11T08:13:09.158Z,12.47
2018-04-11T08:14:09.327Z,12.54
2018-04-11T08:15:09.499Z,12.59
2018-04-11T08:16:09.675Z,12.60
2018-04-11T08:17:09.844Z,12.52
2018-04-11T08:18:10.023Z,12.68
2018-04-11T08:19:10.179Z,12.75
2018-04-11T08:20:10.356Z,12.74
2018-04-11T08:21:10.514Z,12.71
2018-04-11T08:22:10.699Z,12.72
2018-04-11T08:23:10.909Z,12.77
2018-04-11T08:24:11.048Z,12.68
2018-04-11T08:25:11.264Z,12.62
2018-04-11T08:26:11.389Z,12.72
2018-04-11T08:27:11.561Z,12.75
2018-04-11T08:29:47.702Z,12.72
2018-04-11T08:30:12.104Z,12.79
2018-04-11T08:31:35.563Z,12.74
2018-04-11T08:36:50.578Z,13.04
2018-04-11T08:37:50.760Z,12.90
2018-04-11T08:38:50.905Z,12.96
2018-04-11T08:39:51.131Z,13.01
2018-04-11T08:40:51.298Z,13.12
2018-04-11T08:41:51.458Z,13.12
2018-04-11T08:42:51.629Z,13.14
2018-04-11T08:43:51.792Z,13.12
2018-04-11T08:44:51.966Z,13.20
2018-04-11T08:45:52.138Z,13.28
2018-04-11T08:46:52.304Z,13.39
2018-04-11T08:48:46.124Z,13.69
2018-04-11T08:49:45.638Z,13.78
2018-04-11T08:50:45.809Z,13.97
2018-04-11T08:51:45.976Z,14.14
2018-04-11T08:52:46.138Z,14.20
2018-04-11T08:53:46.320Z,14.18
2018-04-11T08:54:46.481Z,14.10
2018-04-11T08:55:46.641Z,14.00
2018-04-11T08:56:46.808Z,13.97
2018-04-11T08:57:47.000Z,14.02
2018-04-11T08:58:47.148Z,13.91
2018-04-11T08:59:47.333Z,13.84
2018-04-11T09:00:47.503Z,13.64
2018-04-11T09:01:47.674Z,13.67
2018-04-11T09:02:47.837Z,13.81
2018-04-11T09:03:47.999Z,13.99
2018-04-11T09:06:47.309Z,13.95
2018-04-11T09:07:20.453Z,13.99
2018-04-11T09:08:20.620Z,13.89
2018-04-11T09:09:20.795Z,14.02
2018-04-11T09:10:20.961Z,14.18
2018-04-11T09:11:21.131Z,14.21
2018-04-11T09:12:21.299Z,14.36
2018-04-11T09:13:21.466Z,14.45
2018-04-11T09:14:21.629Z,14.64
2018-04-11T09:15:21.802Z,14.81
2018-04-11T09:16:21.976Z,14.96
2018-04-11T09:17:22.141Z,15.10
2018-04-11T09:18:22.319Z,15.17
2018-04-11T09:19:22.482Z,15.25
2018-04-11T09:20:22.780Z,15.41
2018-04-11T09:21:22.983Z,15.39
2018-04-11T09:22:22.968Z,15.47
2018-04-11T09:23:23.116Z,15.41
2018-04-11T09:24:23.283Z,15.59
2018-04-11T09:25:23.537Z,15.84
2018-04-11T09:26:23.698Z,16.15
2018-04-11T09:27:23.783Z,16.05
2018-04-11T09:28:24.118Z,15.97
2018-04-11T09:29:24.142Z,16.11
2018-04-11T09:30:24.554Z,16.21
2018-04-11T09:31:24.568Z,16.20
2018-04-11T09:32:24.663Z,16.30
2018-04-11T09:33:24.836Z,16.24
2018-04-11T09:34:25.158Z,16.45
2018-04-11T09:35:25.246Z,16.21
2018-04-11T09:36:25.519Z,16.48
2018-04-11T09:37:25.522Z,16.58
2018-04-11T09:38:25.688Z,16.68
2018-04-11T09:39:25.861Z,16.78
2018-04-11T09:40:26.032Z,16.97
2018-04-11T09:41:26.208Z,16.75
2018-04-11T09:42:26.385Z,16.34
2018-04-11T09:43:26.553Z,16.78
2018-04-11T09:44:26.725Z,16.97
2018-04-11T09:45:26.892Z,16.78
2018-04-11T09:46:27.071Z,16.76
2018-04-11T09:47:27.232Z,16.82
2018-04-11T09:48:27.401Z,17.07
2018-04-11T09:49:27.575Z,17.34
2018-04-11T09:50:27.745Z,17.38
2018-04-11T09:51:27.922Z,17.41
2018-04-11T09:52:28.093Z,17.55
2018-04-11T09:53:28.267Z,17.51
2018-04-11T09:54:28.442Z,17.64
2018-04-11T09:55:28.607Z,17.95
2018-04-11T09:56:28.784Z,18.33
2018-04-11T09:57:28.955Z,18.33
2018-04-11T09:58:29.131Z,18.30
2018-04-11T09:59:29.301Z,18.07
2018-04-11T10:00:29.478Z,17.59
2018-04-11T10:01:29.657Z,17.58
2018-04-11T10:02:29.823Z,17.48
2018-04-11T10:03:29.994Z,17.58
2018-04-11T10:04:30.176Z,17.52
2018-04-11T10:05:30.344Z,17.52
2018-04-11T10:06:30.525Z,17.51
2018-04-11T10:07:30.695Z,17.54
2018-04-11T10:08:30.867Z,17.56
2018-04-11T10:09:31.039Z,17.33
2018-04-11T10:10:31.214Z,17.33
2018-04-11T10:11:31.392Z,17.58
2018-04-11T10:12:31.563Z,17.64
2018-04-11T10:13:31.731Z,17.71
2018-04-11T10:14:31.906Z,17.62
2018-04-11T10:15:32.086Z,17.66
2018-04-11T10:16:32.263Z,17.68
2018-04-11T10:17:32.438Z,17.62
2018-04-11T10:18:32.619Z,17.59
2018-04-11T10:19:32.792Z,17.52
2018-04-11T10:20:32.960Z,17.41
2018-04-11T10:21:33.141Z,17.38
2018-04-11T10:22:33.315Z,17.28
2018-04-11T10:23:33.485Z,17.03
2018-04-11T10:24:33.828Z,17.21
2018-04-11T10:25:33.856Z,17.34
2018-04-11T10:26:34.043Z,17.37
2018-04-11T10:27:34.199Z,17.25
2018-04-11T10:28:34.376Z,16.94
2018-04-11T10:29:34.546Z,16.89
2018-04-11T10:30:34.719Z,17.07
2018-04-11T10:31:34.889Z,17.16
2018-04-11T10:32:35.061Z,16.91
2018-04-11T10:33:35.236Z,17.01
2018-04-11T10:34:35.416Z,17.34
2018-04-11T10:35:35.590Z,17.49
2018-04-11T10:36:35.763Z,17.36
2018-04-11T10:37:35.933Z,17.48
2018-04-11T10:38:36.105Z,17.66
2018-04-11T10:39:36.280Z,17.81
2018-04-11T10:40:36.730Z,18.07
2018-04-11T10:41:36.585Z,18.35
2018-04-11T10:42:36.759Z,18.26
2018-04-11T10:43:37.046Z,18.30
2018-04-11T10:44:37.103Z,18.65
2018-04-11T10:45:37.280Z,19.02
2018-04-11T10:46:37.461Z,19.28
2018-04-11T10:47:37.631Z,19.71
2018-04-11T10:48:37.889Z,20.42
2018-04-11T10:49:38.038Z,21.88
2018-04-11T10:50:38.210Z,22.10
2018-04-11T10:51:38.388Z,22.70
2018-04-11T10:52:38.572Z,23.38
2018-04-11T10:53:38.749Z,23.53
2018-04-11T10:54:38.939Z,23.80
2018-04-11T10:55:39.093Z,25.43
2018-04-11T10:56:39.266Z,27.82
2018-04-11T10:57:39.438Z,28.88
2018-04-11T10:58:39.615Z,29.05
2018-04-11T10:59:39.791Z,28.80
2018-04-11T11:00:39.977Z,30.37
2018-04-11T11:01:40.155Z,29.82
2018-04-11T11:02:40.336Z,30.94
2018-04-11T11:03:40.516Z,31.91
2018-04-11T11:04:40.700Z,32.72
2018-04-11T11:05:40.879Z,33.07
2018-04-11T11:06:41.063Z,32.15
2018-04-11T11:07:41.234Z,31.44
2018-04-11T11:08:41.421Z,30.67
2018-04-11T11:09:41.628Z,29.87
2018-04-11T11:10:41.788Z,28.92
2018-04-11T11:11:41.967Z,27.87
2018-04-11T11:12:42.154Z,26.85
2018-04-11T11:13:42.338Z,26.13
2018-04-11T11:14:42.515Z,25.51
2018-04-11T11:15:42.712Z,25.25
2018-04-11T11:16:42.891Z,25.14
2018-04-11T11:17:43.077Z,25.13
2018-04-11T11:18:43.262Z,25.35
2018-04-11T11:19:43.441Z,25.28
2018-04-11T11:20:43.620Z,24.83
2018-04-11T11:21:43.809Z,24.32
2018-04-11T11:22:43.991Z,23.83
2018-04-11T11:23:44.171Z,23.54
2018-04-11T11:24:44.395Z,23.15
2018-04-11T11:25:44.574Z,22.91
2018-04-11T11:26:44.811Z,22.82
2018-04-11T11:27:45.252Z,22.91
2018-04-11T11:28:45.272Z,22.68
2018-04-11T11:29:45.329Z,22.97
2018-04-11T11:30:45.513Z,24.31
2018-04-11T11:31:46.045Z,26.39
2018-04-11T11:32:45.994Z,26.23
2018-04-11T11:33:46.065Z,27.79
2018-04-11T11:34:46.592Z,27.18
2018-04-11T11:35:46.943Z,26.36
2018-04-11T11:36:46.818Z,26.80
2018-04-11T11:37:46.863Z,28.03
2018-04-11T11:38:46.998Z,28.98
2018-04-11T11:39:47.207Z,27.88
2018-04-11T11:40:47.350Z,27.19
2018-04-11T11:41:47.532Z,26.44
2018-04-11T11:42:47.714Z,25.82
2018-04-11T11:43:47.891Z,24.80
2018-04-11T11:44:48.079Z,23.91
2018-04-11T11:45:48.392Z,23.48
2018-04-11T11:46:48.473Z,23.32
2018-04-11T11:47:48.654Z,22.64
2018-04-11T11:48:48.827Z,22.33
2018-04-11T11:49:49.008Z,21.82
2018-04-11T11:50:49.190Z,21.83
2018-04-11T11:51:49.374Z,21.82
2018-04-11T11:52:49.554Z,21.61
2018-04-11T11:53:49.737Z,21.56
2018-04-11T11:54:49.929Z,21.56
2018-04-11T11:55:50.118Z,21.54
2018-04-11T11:56:50.406Z,21.61
2018-04-11T11:57:50.480Z,21.80
2018-04-11T11:58:50.672Z,22.09
2018-04-11T11:59:50.840Z,22.49
2018-04-11T12:00:51.077Z,22.88
2018-04-11T12:01:51.255Z,23.31
2018-04-11T12:02:51.430Z,23.55
2018-04-11T12:03:51.616Z,23.65
2018-04-11T12:04:51.812Z,23.54
2018-04-11T12:05:51.984Z,23.54
2018-04-11T12:06:52.160Z,23.66
2018-04-11T12:07:52.342Z,23.97
2018-04-11T12:08:52.535Z,24.00
2018-04-11T12:09:52.827Z,24.24
2018-04-11T12:10:52.881Z,24.46
2018-04-11T12:11:53.072Z,24.81
2018-04-11T12:12:53.241Z,24.88
2018-04-11T12:13:53.415Z,25.45
2018-04-11T12:14:53.598Z,25.69
2018-04-11T12:15:53.781Z,25.50
2018-04-11T12:16:53.952Z,25.51
2018-04-11T12:17:54.184Z,25.62
2018-04-11T12:18:54.403Z,26.99
2018-04-11T12:19:54.588Z,28.64
2018-04-11T12:20:54.783Z,30.26
2018-04-11T12:21:54.962Z,31.19
2018-04-11T12:22:55.151Z,31.72
2018-04-11T12:23:55.333Z,31.26
2018-04-11T12:24:55.517Z,31.25
2018-04-11T12:25:55.699Z,31.32
2018-04-11T12:26:55.886Z,31.48
2018-04-11T12:27:56.097Z,31.78
2018-04-11T12:28:56.261Z,31.91
2018-04-11T12:29:56.448Z,32.03
2018-04-11T12:30:56.625Z,32.57
2018-04-11T12:31:56.821Z,32.88
2018-04-11T12:32:57.034Z,32.72
2018-04-11T12:33:57.215Z,33.29
2018-04-11T12:34:58.424Z,33.31
2018-04-11T12:35:57.567Z,32.97
2018-04-11T12:36:57.761Z,31.88
2018-04-11T12:37:57.947Z,31.13
2018-04-11T12:38:58.141Z,29.37
2018-04-11T12:39:58.324Z,28.07
2018-04-11T12:40:58.515Z,26.65
2018-04-11T12:41:58.706Z,26.32
2018-04-11T12:42:58.893Z,25.85
2018-04-11T12:43:59.081Z,25.75
2018-04-11T12:44:59.271Z,25.60
2018-04-11T12:45:59.460Z,25.36
2018-04-11T12:46:59.638Z,25.28
2018-04-11T12:47:59.835Z,25.23
2018-04-11T12:49:00.161Z,25.18
2018-04-11T12:50:00.245Z,25.32
2018-04-11T12:51:01.285Z,24.96
2018-04-11T12:52:00.757Z,26.02
2018-04-11T12:53:00.844Z,26.63
2018-04-11T12:54:01.136Z,27.18
2018-04-11T12:55:01.249Z,27.04
2018-04-11T12:56:01.433Z,26.29
2018-04-11T12:57:01.619Z,25.99
2018-04-11T12:58:01.809Z,25.36
2018-04-11T12:59:01.996Z,24.64
2018-04-11T13:00:02.168Z,24.27
2018-04-11T13:01:02.368Z,23.55
2018-04-11T13:02:02.533Z,23.31
2018-04-11T13:03:02.716Z,23.19
2018-04-11T13:04:03.797Z,22.90
2018-04-11T13:05:03.135Z,22.72
2018-04-11T13:06:03.718Z,22.61
2018-04-11T13:07:03.516Z,22.52
2018-04-11T13:08:03.712Z,22.47
2018-04-11T13:09:03.898Z,22.22
2018-04-11T13:10:04.079Z,22.15
2018-04-11T13:11:04.263Z,22.09